sensor_id;sensor_type;location;lat;lon;timestamp;P1;durP1;ratioP1;P2;durP2;ratioP2
11066;SDS011;29763;50.904;5.530;2023-04-15T00:02:17;7.90;;;3.83;;
11066;SDS011;29763;50.904;5.530;2023-04-15T00:04:46;5.57;;;3.60;;
11066;SDS011;29763;50.904;5.530;2023-04-15T00:07:12;6.30;;;3.30;;
11066;SDS011;29763;50.904;5.530;2023-04-15T00:09:40;7.40;;;3.73;;
11066;SDS011;29763;50.904;5.530;2023-04-15T00:12:09;7.40;;;3.97;;
11066;SDS011;29763;50.904;5.530;2023-04-15T00:14:37;5.90;;;3.63;;
11066;SDS011;29763;50.904;5.530;2023-04-15T00:17:09;8.02;;;4.10;;
11066;SDS011;29763;50.904;5.530;2023-04-15T00:19:44;6.97;;;3.60;;
11066;SDS011;29763;50.904;5.530;2023-04-15T00:22:12;7.07;;;3.90;;
11066;SDS011;29763;50.904;5.530;2023-04-15T00:24:38;7.47;;;3.83;;
11066;SDS011;29763;50.904;5.530;2023-04-15T00:27:04;7.18;;;4.10;;
11066;SDS011;29763;50.904;5.530;2023-04-15T00:29:30;7.30;;;4.40;;
11066;SDS011;29763;50.904;5.530;2023-04-15T00:31:56;5.68;;;3.58;;
11066;SDS011;29763;50.904;5.530;2023-04-15T00:34:22;7.03;;;3.70;;
11066;SDS011;29763;50.904;5.530;2023-04-15T00:36:49;5.53;;;4.10;;
11066;SDS011;29763;50.904;5.530;2023-04-15T00:39:17;6.10;;;3.57;;
11066;SDS011;29763;50.904;5.530;2023-04-15T00:41:50;5.03;;;3.80;;
11066;SDS011;29763;50.904;5.530;2023-04-15T00:44:17;4.87;;;3.80;;
11066;SDS011;29763;50.904;5.530;2023-04-15T00:46:43;5.73;;;4.23;;
11066;SDS011;29763;50.904;5.530;2023-04-15T00:49:10;5.67;;;4.60;;
11066;SDS011;29763;50.904;5.530;2023-04-15T00:51:39;7.93;;;4.90;;
11066;SDS011;29763;50.904;5.530;2023-04-15T00:54:07;5.97;;;4.37;;
11066;SDS011;29763;50.904;5.530;2023-04-15T00:56:34;6.30;;;4.93;;
11066;SDS011;29763;50.904;5.530;2023-04-15T00:59:02;8.27;;;5.30;;
11066;SDS011;29763;50.904;5.530;2023-04-15T01:01:33;4.70;;;4.00;;
11066;SDS011;29763;50.904;5.530;2023-04-15T01:04:00;7.10;;;4.23;;
11066;SDS011;29763;50.904;5.530;2023-04-15T01:06:27;6.50;;;4.07;;
11066;SDS011;29763;50.904;5.530;2023-04-15T01:08:54;6.85;;;3.80;;
11066;SDS011;29763;50.904;5.530;2023-04-15T01:11:29;6.07;;;4.03;;
11066;SDS011;29763;50.904;5.530;2023-04-15T01:14:01;6.63;;;3.70;;
11066;SDS011;29763;50.904;5.530;2023-04-15T01:16:28;7.40;;;3.87;;
11066;SDS011;29763;50.904;5.530;2023-04-15T01:18:54;6.03;;;4.00;;
11066;SDS011;29763;50.904;5.530;2023-04-15T01:21:20;5.18;;;4.00;;
11066;SDS011;29763;50.904;5.530;2023-04-15T01:23:47;4.70;;;3.67;;
11066;SDS011;29763;50.904;5.530;2023-04-15T01:26:15;4.43;;;3.63;;
11066;SDS011;29763;50.904;5.530;2023-04-15T01:28:41;5.20;;;4.33;;
11066;SDS011;29763;50.904;5.530;2023-04-15T01:33:34;4.70;;;4.18;;
11066;SDS011;29763;50.904;5.530;2023-04-15T01:36:03;4.93;;;3.97;;
11066;SDS011;29763;50.904;5.530;2023-04-15T01:38:32;5.63;;;3.97;;
11066;SDS011;29763;50.904;5.530;2023-04-15T01:41:00;5.63;;;4.05;;
11066;SDS011;29763;50.904;5.530;2023-04-15T01:43:28;9.20;;;5.00;;
11066;SDS011;29763;50.904;5.530;2023-04-15T01:45:54;6.43;;;4.28;;
11066;SDS011;29763;50.904;5.530;2023-04-15T01:48:20;7.07;;;4.40;;
11066;SDS011;29763;50.904;5.530;2023-04-15T01:50:47;7.78;;;4.10;;
11066;SDS011;29763;50.904;5.530;2023-04-15T01:53:13;6.43;;;4.50;;
11066;SDS011;29763;50.904;5.530;2023-04-15T01:55:41;7.32;;;4.25;;
11066;SDS011;29763;50.904;5.530;2023-04-15T01:58:08;5.55;;;4.05;;
11066;SDS011;29763;50.904;5.530;2023-04-15T02:00:34;6.55;;;4.15;;
11066;SDS011;29763;50.904;5.530;2023-04-15T02:03:01;6.88;;;4.32;;
11066;SDS011;29763;50.904;5.530;2023-04-15T02:05:27;7.30;;;4.43;;
11066;SDS011;29763;50.904;5.530;2023-04-15T02:07:53;6.80;;;4.72;;
11066;SDS011;29763;50.904;5.530;2023-04-15T02:10:18;7.35;;;4.20;;
11066;SDS011;29763;50.904;5.530;2023-04-15T02:12:46;6.63;;;4.20;;
11066;SDS011;29763;50.904;5.530;2023-04-15T02:15:25;6.03;;;4.30;;
11066;SDS011;29763;50.904;5.530;2023-04-15T02:17:53;5.10;;;4.30;;
11066;SDS011;29763;50.904;5.530;2023-04-15T02:20:20;6.32;;;4.00;;
11066;SDS011;29763;50.904;5.530;2023-04-15T02:22:54;6.47;;;4.07;;
11066;SDS011;29763;50.904;5.530;2023-04-15T02:25:41;5.60;;;4.33;;
11066;SDS011;29763;50.904;5.530;2023-04-15T02:28:09;4.63;;;3.90;;
11066;SDS011;29763;50.904;5.530;2023-04-15T02:30:38;6.88;;;4.20;;
11066;SDS011;29763;50.904;5.530;2023-04-15T02:33:05;7.00;;;4.18;;
11066;SDS011;29763;50.904;5.530;2023-04-15T02:35:31;4.85;;;3.55;;
11066;SDS011;29763;50.904;5.530;2023-04-15T02:38:03;5.03;;;3.60;;
11066;SDS011;29763;50.904;5.530;2023-04-15T02:40:31;4.55;;;3.65;;
11066;SDS011;29763;50.904;5.530;2023-04-15T02:42:57;5.20;;;3.50;;
11066;SDS011;29763;50.904;5.530;2023-04-15T02:45:24;5.35;;;3.17;;
11066;SDS011;29763;50.904;5.530;2023-04-15T02:47:52;4.90;;;3.22;;
11066;SDS011;29763;50.904;5.530;2023-04-15T02:50:18;5.07;;;3.53;;
11066;SDS011;29763;50.904;5.530;2023-04-15T02:52:47;6.85;;;3.30;;
11066;SDS011;29763;50.904;5.530;2023-04-15T02:55:13;7.93;;;3.78;;
11066;SDS011;29763;50.904;5.530;2023-04-15T02:57:39;3.83;;;3.13;;
11066;SDS011;29763;50.904;5.530;2023-04-15T03:00:08;5.55;;;3.35;;
11066;SDS011;29763;50.904;5.530;2023-04-15T03:02:44;5.50;;;3.20;;
11066;SDS011;29763;50.904;5.530;2023-04-15T03:05:11;6.38;;;3.50;;
11066;SDS011;29763;50.904;5.530;2023-04-15T03:07:39;6.60;;;3.88;;
11066;SDS011;29763;50.904;5.530;2023-04-15T03:10:05;8.10;;;4.10;;
11066;SDS011;29763;50.904;5.530;2023-04-15T03:12:31;7.00;;;3.75;;
11066;SDS011;29763;50.904;5.530;2023-04-15T03:14:59;6.13;;;3.80;;
11066;SDS011;29763;50.904;5.530;2023-04-15T03:17:27;6.65;;;4.10;;
11066;SDS011;29763;50.904;5.530;2023-04-15T03:20:00;5.35;;;3.50;;
11066;SDS011;29763;50.904;5.530;2023-04-15T03:22:29;4.13;;;3.47;;
11066;SDS011;29763;50.904;5.530;2023-04-15T03:24:55;9.10;;;4.22;;
11066;SDS011;29763;50.904;5.530;2023-04-15T03:27:24;6.63;;;4.10;;
11066;SDS011;29763;50.904;5.530;2023-04-15T03:29:51;4.65;;;3.80;;
11066;SDS011;29763;50.904;5.530;2023-04-15T03:32:23;6.97;;;3.92;;
11066;SDS011;29763;50.904;5.530;2023-04-15T03:34:51;6.07;;;3.88;;
11066;SDS011;29763;50.904;5.530;2023-04-15T03:37:18;5.95;;;3.85;;
11066;SDS011;29763;50.904;5.530;2023-04-15T03:39:45;7.95;;;4.25;;
11066;SDS011;29763;50.904;5.530;2023-04-15T03:42:11;5.20;;;3.90;;
11066;SDS011;29763;50.904;5.530;2023-04-15T03:44:39;5.82;;;3.85;;
11066;SDS011;29763;50.904;5.530;2023-04-15T03:47:05;4.05;;;3.53;;
11066;SDS011;29763;50.904;5.530;2023-04-15T03:49:31;5.45;;;3.50;;
11066;SDS011;29763;50.904;5.530;2023-04-15T03:51:59;5.28;;;3.88;;
11066;SDS011;29763;50.904;5.530;2023-04-15T03:54:25;6.65;;;4.15;;
11066;SDS011;29763;50.904;5.530;2023-04-15T03:56:52;7.18;;;3.63;;
11066;SDS011;29763;50.904;5.530;2023-04-15T03:59:18;7.50;;;3.92;;
11066;SDS011;29763;50.904;5.530;2023-04-15T04:01:45;5.50;;;4.22;;
11066;SDS011;29763;50.904;5.530;2023-04-15T04:04:10;6.15;;;4.10;;
11066;SDS011;29763;50.904;5.530;2023-04-15T04:06:36;5.95;;;3.92;;
11066;SDS011;29763;50.904;5.530;2023-04-15T04:09:02;7.85;;;4.72;;
11066;SDS011;29763;50.904;5.530;2023-04-15T04:11:28;5.97;;;4.22;;
11066;SDS011;29763;50.904;5.530;2023-04-15T04:13:55;5.38;;;3.85;;
11066;SDS011;29763;50.904;5.530;2023-04-15T04:16:27;8.00;;;3.65;;
11066;SDS011;29763;50.904;5.530;2023-04-15T04:18:56;4.85;;;3.47;;
11066;SDS011;29763;50.904;5.530;2023-04-15T04:21:25;5.50;;;3.92;;
11066;SDS011;29763;50.904;5.530;2023-04-15T04:23:52;6.25;;;3.97;;
11066;SDS011;29763;50.904;5.530;2023-04-15T04:26:19;5.90;;;3.83;;
11066;SDS011;29763;50.904;5.530;2023-04-15T04:28:47;7.63;;;4.00;;
11066;SDS011;29763;50.904;5.530;2023-04-15T04:31:13;7.35;;;3.50;;
11066;SDS011;29763;50.904;5.530;2023-04-15T04:33:39;6.97;;;3.70;;
11066;SDS011;29763;50.904;5.530;2023-04-15T04:36:05;6.60;;;3.85;;
11066;SDS011;29763;50.904;5.530;2023-04-15T04:38:31;5.80;;;3.90;;
11066;SDS011;29763;50.904;5.530;2023-04-15T04:40:58;5.22;;;3.45;;
11066;SDS011;29763;50.904;5.530;2023-04-15T04:43:31;4.60;;;3.37;;
11066;SDS011;29763;50.904;5.530;2023-04-15T04:45:59;6.10;;;3.47;;
11066;SDS011;29763;50.904;5.530;2023-04-15T04:48:26;6.28;;;3.70;;
11066;SDS011;29763;50.904;5.530;2023-04-15T04:50:52;7.57;;;3.70;;
11066;SDS011;29763;50.904;5.530;2023-04-15T04:53:21;6.07;;;4.30;;
11066;SDS011;29763;50.904;5.530;2023-04-15T04:55:46;5.65;;;4.03;;
11066;SDS011;29763;50.904;5.530;2023-04-15T04:58:12;6.30;;;4.13;;
11066;SDS011;29763;50.904;5.530;2023-04-15T05:00:39;6.43;;;3.80;;
11066;SDS011;29763;50.904;5.530;2023-04-15T05:03:06;5.40;;;3.90;;
11066;SDS011;29763;50.904;5.530;2023-04-15T05:05:33;7.27;;;4.43;;
11066;SDS011;29763;50.904;5.530;2023-04-15T05:08:12;7.70;;;3.90;;
11066;SDS011;29763;50.904;5.530;2023-04-15T05:10:40;5.15;;;3.60;;
11066;SDS011;29763;50.904;5.530;2023-04-15T05:13:06;6.30;;;3.70;;
11066;SDS011;29763;50.904;5.530;2023-04-15T05:15:32;11.57;;;5.13;;
11066;SDS011;29763;50.904;5.530;2023-04-15T05:18:00;8.40;;;4.60;;
11066;SDS011;29763;50.904;5.530;2023-04-15T05:20:27;6.33;;;3.70;;
11066;SDS011;29763;50.904;5.530;2023-04-15T05:23:00;6.83;;;4.27;;
11066;SDS011;29763;50.904;5.530;2023-04-15T05:25:26;7.07;;;4.10;;
11066;SDS011;29763;50.904;5.530;2023-04-15T05:27:53;6.93;;;4.00;;
11066;SDS011;29763;50.904;5.530;2023-04-15T05:30:19;7.00;;;4.57;;
11066;SDS011;29763;50.904;5.530;2023-04-15T05:32:48;7.93;;;4.55;;
11066;SDS011;29763;50.904;5.530;2023-04-15T05:35:17;8.43;;;4.70;;
11066;SDS011;29763;50.904;5.530;2023-04-15T05:37:44;7.17;;;4.00;;
11066;SDS011;29763;50.904;5.530;2023-04-15T05:40:10;6.60;;;4.67;;
11066;SDS011;29763;50.904;5.530;2023-04-15T05:42:36;6.17;;;4.00;;
11066;SDS011;29763;50.904;5.530;2023-04-15T05:45:03;6.73;;;4.60;;
11066;SDS011;29763;50.904;5.530;2023-04-15T05:47:33;5.93;;;4.17;;
11066;SDS011;29763;50.904;5.530;2023-04-15T05:50:02;8.80;;;4.30;;
11066;SDS011;29763;50.904;5.530;2023-04-15T05:52:29;6.97;;;4.18;;
11066;SDS011;29763;50.904;5.530;2023-04-15T05:54:56;7.53;;;4.40;;
11066;SDS011;29763;50.904;5.530;2023-04-15T05:57:22;6.73;;;4.23;;
11066;SDS011;29763;50.904;5.530;2023-04-15T06:00:05;7.97;;;4.70;;
11066;SDS011;29763;50.904;5.530;2023-04-15T06:02:33;9.57;;;4.70;;
11066;SDS011;29763;50.904;5.530;2023-04-15T06:05:02;6.63;;;4.63;;
11066;SDS011;29763;50.904;5.530;2023-04-15T06:07:29;7.28;;;5.22;;
11066;SDS011;29763;50.904;5.530;2023-04-15T06:09:56;9.60;;;4.93;;
11066;SDS011;29763;50.904;5.530;2023-04-15T06:12:22;10.18;;;5.18;;
11066;SDS011;29763;50.904;5.530;2023-04-15T06:14:50;8.80;;;5.28;;
11066;SDS011;29763;50.904;5.530;2023-04-15T06:17:15;9.80;;;4.72;;
11066;SDS011;29763;50.904;5.530;2023-04-15T06:19:42;9.88;;;5.15;;
11066;SDS011;29763;50.904;5.530;2023-04-15T06:22:09;8.05;;;5.13;;
11066;SDS011;29763;50.904;5.530;2023-04-15T06:24:35;7.03;;;4.85;;
11066;SDS011;29763;50.904;5.530;2023-04-15T06:27:02;10.40;;;5.10;;
11066;SDS011;29763;50.904;5.530;2023-04-15T06:29:44;10.00;;;5.82;;
11066;SDS011;29763;50.904;5.530;2023-04-15T06:32:10;10.23;;;5.70;;
11066;SDS011;29763;50.904;5.530;2023-04-15T06:34:39;8.27;;;5.70;;
11066;SDS011;29763;50.904;5.530;2023-04-15T06:37:05;9.55;;;5.93;;
11066;SDS011;29763;50.904;5.530;2023-04-15T06:39:32;9.75;;;6.25;;
11066;SDS011;29763;50.904;5.530;2023-04-15T06:41:58;7.97;;;6.07;;
11066;SDS011;29763;50.904;5.530;2023-04-15T06:44:25;7.45;;;6.03;;
11066;SDS011;29763;50.904;5.530;2023-04-15T06:46:51;9.02;;;6.00;;
11066;SDS011;29763;50.904;5.530;2023-04-15T06:49:17;8.55;;;6.30;;
11066;SDS011;29763;50.904;5.530;2023-04-15T06:51:42;8.88;;;5.78;;
11066;SDS011;29763;50.904;5.530;2023-04-15T06:54:08;9.05;;;5.70;;
11066;SDS011;29763;50.904;5.530;2023-04-15T06:56:35;8.32;;;5.88;;
11066;SDS011;29763;50.904;5.530;2023-04-15T06:59:01;8.60;;;5.95;;
11066;SDS011;29763;50.904;5.530;2023-04-15T07:01:34;8.15;;;5.57;;
11066;SDS011;29763;50.904;5.530;2023-04-15T07:04:01;6.03;;;5.43;;
11066;SDS011;29763;50.904;5.530;2023-04-15T07:06:28;8.60;;;5.65;;
11066;SDS011;29763;50.904;5.530;2023-04-15T07:08:54;9.98;;;6.20;;
11066;SDS011;29763;50.904;5.530;2023-04-15T07:11:28;8.00;;;6.10;;
11066;SDS011;29763;50.904;5.530;2023-04-15T07:13:59;7.18;;;5.55;;
11066;SDS011;29763;50.904;5.530;2023-04-15T07:16:28;9.45;;;5.80;;
11066;SDS011;29763;50.904;5.530;2023-04-15T07:18:55;6.97;;;5.63;;
11066;SDS011;29763;50.904;5.530;2023-04-15T07:21:22;8.40;;;5.65;;
11066;SDS011;29763;50.904;5.530;2023-04-15T07:23:51;8.10;;;5.40;;
11066;SDS011;29763;50.904;5.530;2023-04-15T07:26:18;6.40;;;5.65;;
11066;SDS011;29763;50.904;5.530;2023-04-15T07:28:50;5.90;;;5.32;;
11066;SDS011;29763;50.904;5.530;2023-04-15T07:31:16;7.07;;;5.68;;
11066;SDS011;29763;50.904;5.530;2023-04-15T07:33:44;7.13;;;5.72;;
11066;SDS011;29763;50.904;5.530;2023-04-15T07:36:10;9.82;;;5.82;;
11066;SDS011;29763;50.904;5.530;2023-04-15T07:38:36;6.38;;;5.65;;
11066;SDS011;29763;50.904;5.530;2023-04-15T07:41:04;7.28;;;5.63;;
11066;SDS011;29763;50.904;5.530;2023-04-15T07:43:33;7.70;;;6.07;;
11066;SDS011;29763;50.904;5.530;2023-04-15T07:46:00;7.07;;;5.47;;
11066;SDS011;29763;50.904;5.530;2023-04-15T07:48:30;8.25;;;5.40;;
11066;SDS011;29763;50.904;5.530;2023-04-15T07:50:59;7.20;;;6.22;;
11066;SDS011;29763;50.904;5.530;2023-04-15T07:53:27;8.13;;;5.75;;
11066;SDS011;29763;50.904;5.530;2023-04-15T07:55:54;6.53;;;5.63;;
11066;SDS011;29763;50.904;5.530;2023-04-15T07:58:21;7.47;;;5.90;;
11066;SDS011;29763;50.904;5.530;2023-04-15T08:00:53;6.53;;;5.70;;
11066;SDS011;29763;50.904;5.530;2023-04-15T08:03:20;7.05;;;6.10;;
11066;SDS011;29763;50.904;5.530;2023-04-15T08:05:46;8.07;;;6.38;;
11066;SDS011;29763;50.904;5.530;2023-04-15T08:08:18;8.02;;;6.20;;
11066;SDS011;29763;50.904;5.530;2023-04-15T08:10:46;8.15;;;5.90;;
11066;SDS011;29763;50.904;5.530;2023-04-15T08:13:15;6.80;;;6.20;;
11066;SDS011;29763;50.904;5.530;2023-04-15T08:15:41;8.52;;;7.68;;
11066;SDS011;29763;50.904;5.530;2023-04-15T08:18:07;9.32;;;8.20;;
11066;SDS011;29763;50.904;5.530;2023-04-15T08:20:34;12.90;;;8.98;;
11066;SDS011;29763;50.904;5.530;2023-04-15T08:23:01;11.07;;;9.38;;
11066;SDS011;29763;50.904;5.530;2023-04-15T08:25:33;11.13;;;9.88;;
11066;SDS011;29763;50.904;5.530;2023-04-15T08:28:02;10.20;;;9.18;;
11066;SDS011;29763;50.904;5.530;2023-04-15T08:30:32;11.38;;;10.27;;
11066;SDS011;29763;50.904;5.530;2023-04-15T08:32:58;10.63;;;9.52;;
11066;SDS011;29763;50.904;5.530;2023-04-15T08:35:29;10.15;;;8.98;;
11066;SDS011;29763;50.904;5.530;2023-04-15T08:37:56;11.57;;;9.40;;
11066;SDS011;29763;50.904;5.530;2023-04-15T08:40:22;9.50;;;8.60;;
11066;SDS011;29763;50.904;5.530;2023-04-15T08:43:21;9.40;;;8.50;;
11066;SDS011;29763;50.904;5.530;2023-04-15T08:46:11;11.63;;;9.25;;
11066;SDS011;29763;50.904;5.530;2023-04-15T08:48:42;9.38;;;8.38;;
11066;SDS011;29763;50.904;5.530;2023-04-15T08:51:14;9.93;;;9.02;;
11066;SDS011;29763;50.904;5.530;2023-04-15T08:53:44;11.02;;;9.15;;
11066;SDS011;29763;50.904;5.530;2023-04-15T08:56:13;10.20;;;9.13;;
11066;SDS011;29763;50.904;5.530;2023-04-15T08:58:50;9.30;;;8.35;;
11066;SDS011;29763;50.904;5.530;2023-04-15T09:01:18;9.70;;;8.77;;
11066;SDS011;29763;50.904;5.530;2023-04-15T09:03:49;8.93;;;8.10;;
11066;SDS011;29763;50.904;5.530;2023-04-15T09:06:16;9.10;;;8.20;;
11066;SDS011;29763;50.904;5.530;2023-04-15T09:08:43;8.27;;;7.45;;
11066;SDS011;29763;50.904;5.530;2023-04-15T09:11:14;8.50;;;7.70;;
11066;SDS011;29763;50.904;5.530;2023-04-15T09:13:50;8.40;;;7.60;;
11066;SDS011;29763;50.904;5.530;2023-04-15T09:16:17;7.55;;;6.85;;
11066;SDS011;29763;50.904;5.530;2023-04-15T09:18:43;8.20;;;6.28;;
11066;SDS011;29763;50.904;5.530;2023-04-15T09:21:15;8.10;;;7.30;;
11066;SDS011;29763;50.904;5.530;2023-04-15T09:24:00;7.05;;;6.45;;
11066;SDS011;29763;50.904;5.530;2023-04-15T09:26:33;7.25;;;6.63;;
11066;SDS011;29763;50.904;5.530;2023-04-15T09:29:05;6.90;;;6.20;;
11066;SDS011;29763;50.904;5.530;2023-04-15T09:31:35;6.38;;;5.32;;
11066;SDS011;29763;50.904;5.530;2023-04-15T09:34:01;5.72;;;4.93;;
11066;SDS011;29763;50.904;5.530;2023-04-15T09:36:29;5.35;;;4.85;;
11066;SDS011;29763;50.904;5.530;2023-04-15T09:39:13;5.07;;;4.55;;
11066;SDS011;29763;50.904;5.530;2023-04-15T09:41:40;5.75;;;5.15;;
11066;SDS011;29763;50.904;5.530;2023-04-15T09:44:23;5.78;;;5.25;;
11066;SDS011;29763;50.904;5.530;2023-04-15T09:46:50;6.43;;;4.70;;
11066;SDS011;29763;50.904;5.530;2023-04-15T09:49:16;6.65;;;5.07;;
11066;SDS011;29763;50.904;5.530;2023-04-15T09:51:49;5.53;;;4.80;;
11066;SDS011;29763;50.904;5.530;2023-04-15T09:54:23;4.97;;;4.40;;
11066;SDS011;29763;50.904;5.530;2023-04-15T09:59:49;4.82;;;4.40;;
11066;SDS011;29763;50.904;5.530;2023-04-15T10:02:37;4.57;;;4.00;;
11066;SDS011;29763;50.904;5.530;2023-04-15T10:05:09;5.65;;;4.30;;
11066;SDS011;29763;50.904;5.530;2023-04-15T10:07:38;3.65;;;3.35;;
11066;SDS011;29763;50.904;5.530;2023-04-15T10:10:20;4.20;;;3.80;;
11066;SDS011;29763;50.904;5.530;2023-04-15T10:12:46;3.72;;;3.42;;
11066;SDS011;29763;50.904;5.530;2023-04-15T10:15:17;4.18;;;3.78;;
11066;SDS011;29763;50.904;5.530;2023-04-15T10:17:43;3.90;;;3.53;;
11066;SDS011;29763;50.904;5.530;2023-04-15T10:20:13;4.57;;;3.40;;
11066;SDS011;29763;50.904;5.530;2023-04-15T10:22:47;3.80;;;3.40;;
11066;SDS011;29763;50.904;5.530;2023-04-15T10:25:16;4.70;;;3.85;;
11066;SDS011;29763;50.904;5.530;2023-04-15T10:27:45;4.88;;;3.90;;
11066;SDS011;29763;50.904;5.530;2023-04-15T10:30:25;4.95;;;4.05;;
11066;SDS011;29763;50.904;5.530;2023-04-15T10:32:56;5.03;;;4.53;;
11066;SDS011;29763;50.904;5.530;2023-04-15T10:35:28;4.88;;;4.43;;
11066;SDS011;29763;50.904;5.530;2023-04-15T10:38:00;4.88;;;4.47;;
11066;SDS011;29763;50.904;5.530;2023-04-15T10:40:30;4.95;;;4.30;;
11066;SDS011;29763;50.904;5.530;2023-04-15T10:43:00;5.50;;;4.03;;
11066;SDS011;29763;50.904;5.530;2023-04-15T10:45:34;4.18;;;3.85;;
11066;SDS011;29763;50.904;5.530;2023-04-15T10:48:02;4.50;;;4.10;;
11066;SDS011;29763;50.904;5.530;2023-04-15T10:50:30;4.72;;;3.95;;
11066;SDS011;29763;50.904;5.530;2023-04-15T10:53:01;4.95;;;4.32;;
11066;SDS011;29763;50.904;5.530;2023-04-15T10:55:44;4.32;;;3.92;;
11066;SDS011;29763;50.904;5.530;2023-04-15T10:58:10;4.43;;;3.65;;
11066;SDS011;29763;50.904;5.530;2023-04-15T11:00:36;3.78;;;3.45;;
11066;SDS011;29763;50.904;5.530;2023-04-15T11:03:07;3.95;;;3.65;;
11066;SDS011;29763;50.904;5.530;2023-04-15T11:11:19;4.55;;;3.95;;
11066;SDS011;29763;50.904;5.530;2023-04-15T11:13:49;4.00;;;3.60;;
11066;SDS011;29763;50.904;5.530;2023-04-15T11:16:17;3.88;;;3.53;;
11066;SDS011;29763;50.904;5.530;2023-04-15T11:18:52;3.70;;;3.40;;
11066;SDS011;29763;50.904;5.530;2023-04-15T11:23:58;3.92;;;3.00;;
11066;SDS011;29763;50.904;5.530;2023-04-15T11:26:26;4.00;;;3.13;;
11066;SDS011;29763;50.904;5.530;2023-04-15T11:28:52;2.83;;;2.63;;
11066;SDS011;29763;50.904;5.530;2023-04-15T11:31:22;3.47;;;3.10;;
11066;SDS011;29763;50.904;5.530;2023-04-15T11:33:56;3.88;;;3.45;;
11066;SDS011;29763;50.904;5.530;2023-04-15T11:36:28;3.53;;;3.22;;
11066;SDS011;29763;50.904;5.530;2023-04-15T11:39:01;4.20;;;3.25;;
11066;SDS011;29763;50.904;5.530;2023-04-15T11:41:31;3.55;;;2.70;;
11066;SDS011;29763;50.904;5.530;2023-04-15T11:43:57;2.60;;;2.40;;
11066;SDS011;29763;50.904;5.530;2023-04-15T11:46:30;2.80;;;2.60;;
11066;SDS011;29763;50.904;5.530;2023-04-15T11:48:56;2.97;;;2.58;;
11066;SDS011;29763;50.904;5.530;2023-04-15T11:51:24;3.58;;;3.15;;
11066;SDS011;29763;50.904;5.530;2023-04-15T11:53:50;3.75;;;2.70;;
11066;SDS011;29763;50.904;5.530;2023-04-15T11:56:22;2.55;;;2.05;;
11066;SDS011;29763;50.904;5.530;2023-04-15T11:58:51;4.60;;;1.88;;
11066;SDS011;29763;50.904;5.530;2023-04-15T12:01:36;2.47;;;2.22;;
11066;SDS011;29763;50.904;5.530;2023-04-15T12:04:12;2.58;;;2.22;;
11066;SDS011;29763;50.904;5.530;2023-04-15T12:06:46;2.40;;;2.20;;
11066;SDS011;29763;50.904;5.530;2023-04-15T12:09:14;1.95;;;1.85;;
11066;SDS011;29763;50.904;5.530;2023-04-15T12:11:48;3.50;;;1.92;;
11066;SDS011;29763;50.904;5.530;2023-04-15T12:14:27;1.90;;;1.80;;
11066;SDS011;29763;50.904;5.530;2023-04-15T12:17:05;1.90;;;1.80;;
11066;SDS011;29763;50.904;5.530;2023-04-15T12:19:34;2.38;;;1.90;;
11066;SDS011;29763;50.904;5.530;2023-04-15T12:22:07;2.13;;;1.98;;
11066;SDS011;29763;50.904;5.530;2023-04-15T12:24:35;2.67;;;2.47;;
11066;SDS011;29763;50.904;5.530;2023-04-15T12:27:10;2.67;;;2.47;;
11066;SDS011;29763;50.904;5.530;2023-04-15T12:29:38;2.97;;;2.70;;
11066;SDS011;29763;50.904;5.530;2023-04-15T12:32:12;3.38;;;2.88;;
11066;SDS011;29763;50.904;5.530;2023-04-15T12:34:44;3.20;;;2.70;;
11066;SDS011;29763;50.904;5.530;2023-04-15T12:37:15;2.33;;;2.13;;
11066;SDS011;29763;50.904;5.530;2023-04-15T12:39:42;2.20;;;2.10;;
11066;SDS011;29763;50.904;5.530;2023-04-15T12:42:13;3.35;;;2.55;;
11066;SDS011;29763;50.904;5.530;2023-04-15T12:44:40;3.70;;;2.80;;
11066;SDS011;29763;50.904;5.530;2023-04-15T12:47:07;2.65;;;2.45;;
11066;SDS011;29763;50.904;5.530;2023-04-15T12:49:34;2.70;;;2.50;;
11066;SDS011;29763;50.904;5.530;2023-04-15T12:52:01;2.47;;;2.28;;
11066;SDS011;29763;50.904;5.530;2023-04-15T12:54:30;3.42;;;2.88;;
11066;SDS011;29763;50.904;5.530;2023-04-15T12:56:58;3.20;;;2.90;;
11066;SDS011;29763;50.904;5.530;2023-04-15T12:59:27;3.20;;;2.90;;
11066;SDS011;29763;50.904;5.530;2023-04-15T13:01:54;3.25;;;2.95;;
11066;SDS011;29763;50.904;5.530;2023-04-15T13:04:21;3.05;;;2.75;;
11066;SDS011;29763;50.904;5.530;2023-04-15T13:06:57;3.35;;;2.75;;
11066;SDS011;29763;50.904;5.530;2023-04-15T13:09:23;2.47;;;2.28;;
11066;SDS011;29763;50.904;5.530;2023-04-15T13:11:50;3.80;;;1.67;;
11066;SDS011;29763;50.904;5.530;2023-04-15T13:14:16;2.03;;;1.70;;
11066;SDS011;29763;50.904;5.530;2023-04-15T13:16:48;2.65;;;2.08;;
11066;SDS011;29763;50.904;5.530;2023-04-15T13:19:15;2.13;;;1.70;;
11066;SDS011;29763;50.904;5.530;2023-04-15T13:21:47;1.85;;;1.75;;
11066;SDS011;29763;50.904;5.530;2023-04-15T13:24:13;2.30;;;2.00;;
11066;SDS011;29763;50.904;5.530;2023-04-15T13:26:39;2.08;;;1.92;;
11066;SDS011;29763;50.904;5.530;2023-04-15T13:29:09;1.70;;;1.60;;
11066;SDS011;29763;50.904;5.530;2023-04-15T13:31:36;2.25;;;2.05;;
11066;SDS011;29763;50.904;5.530;2023-04-15T13:34:02;1.80;;;1.70;;
11066;SDS011;29763;50.904;5.530;2023-04-15T13:36:27;1.90;;;1.80;;
11066;SDS011;29763;50.904;5.530;2023-04-15T13:38:53;2.75;;;2.13;;
11066;SDS011;29763;50.904;5.530;2023-04-15T13:41:19;2.15;;;2.05;;
11066;SDS011;29763;50.904;5.530;2023-04-15T13:43:45;2.50;;;2.30;;
11066;SDS011;29763;50.904;5.530;2023-04-15T13:46:13;2.90;;;2.70;;
11066;SDS011;29763;50.904;5.530;2023-04-15T13:48:43;3.45;;;2.70;;
11066;SDS011;29763;50.904;5.530;2023-04-15T13:51:09;2.60;;;2.40;;
11066;SDS011;29763;50.904;5.530;2023-04-15T13:53:36;2.60;;;2.40;;
11066;SDS011;29763;50.904;5.530;2023-04-15T13:56:05;3.58;;;2.78;;
11066;SDS011;29763;50.904;5.530;2023-04-15T13:58:32;2.90;;;2.70;;
11066;SDS011;29763;50.904;5.530;2023-04-15T14:00:59;3.95;;;2.50;;
11066;SDS011;29763;50.904;5.530;2023-04-15T14:03:26;3.00;;;2.08;;
11066;SDS011;29763;50.904;5.530;2023-04-15T14:05:52;2.80;;;2.53;;
11066;SDS011;29763;50.904;5.530;2023-04-15T14:08:22;2.42;;;2.22;;
11066;SDS011;29763;50.904;5.530;2023-04-15T14:10:55;2.92;;;2.35;;
11066;SDS011;29763;50.904;5.530;2023-04-15T14:13:22;2.60;;;2.40;;
11066;SDS011;29763;50.904;5.530;2023-04-15T14:15:49;2.78;;;2.40;;
11066;SDS011;29763;50.904;5.530;2023-04-15T14:18:14;2.40;;;2.20;;
11066;SDS011;29763;50.904;5.530;2023-04-15T14:20:42;2.38;;;2.10;;
11066;SDS011;29763;50.904;5.530;2023-04-15T14:23:07;2.85;;;2.53;;
11066;SDS011;29763;50.904;5.530;2023-04-15T14:25:33;2.28;;;2.10;;
11066;SDS011;29763;50.904;5.530;2023-04-15T14:27:59;2.25;;;2.08;;
11066;SDS011;29763;50.904;5.530;2023-04-15T14:30:25;2.35;;;2.20;;
11066;SDS011;29763;50.904;5.530;2023-04-15T14:32:52;3.38;;;2.17;;
11066;SDS011;29763;50.904;5.530;2023-04-15T14:35:25;3.90;;;2.00;;
11066;SDS011;29763;50.904;5.530;2023-04-15T14:37:52;2.95;;;2.30;;
11066;SDS011;29763;50.904;5.530;2023-04-15T14:40:25;2.40;;;2.20;;
11066;SDS011;29763;50.904;5.530;2023-04-15T14:42:51;2.60;;;2.40;;
11066;SDS011;29763;50.904;5.530;2023-04-15T14:45:17;3.28;;;2.50;;
11066;SDS011;29763;50.904;5.530;2023-04-15T14:47:42;2.97;;;2.20;;
11066;SDS011;29763;50.904;5.530;2023-04-15T14:50:08;2.78;;;2.58;;
11066;SDS011;29763;50.904;5.530;2023-04-15T14:52:35;4.18;;;2.58;;
11066;SDS011;29763;50.904;5.530;2023-04-15T14:55:05;3.65;;;2.83;;
11066;SDS011;29763;50.904;5.530;2023-04-15T14:57:42;2.78;;;2.40;;
11066;SDS011;29763;50.904;5.530;2023-04-15T15:00:09;2.80;;;2.38;;
11066;SDS011;29763;50.904;5.530;2023-04-15T15:02:42;3.53;;;2.15;;
11066;SDS011;29763;50.904;5.530;2023-04-15T15:05:12;3.38;;;2.30;;
11066;SDS011;29763;50.904;5.530;2023-04-15T15:07:38;2.17;;;2.00;;
11066;SDS011;29763;50.904;5.530;2023-04-15T15:10:05;2.30;;;2.10;;
11066;SDS011;29763;50.904;5.530;2023-04-15T15:12:32;2.50;;;2.30;;